Hondorus, Indiana
Current Conditions -  °F | °C
As of 9:54 AM on Saturday 25 Oct 2014 (Local Time) from KFWA Reporting Station
Broken Clouds Broken Clouds  
Wind Chill: 57°   Ceiling: 30000
Heat Index: 57°   Visibility: 7mi
Dew Point: 52°   Wind: 9mph
Humidity: 83%   Direction: 240°WSW
Pressure: 29.93"   Gusts: NA
Location:  40.8317°N, 84.9398°W
Report Text: KFWA 251354Z 24008KT 7SM SCT200 BKN300 14/11 A2993 RMK AO2 SLP136 T01390111
Loading
Personal Weather Stations






























Interactive Weather Map
Tropical Storm Tracking
New forecast layout! Learn more

10-Day Weather Forecast

Advertisements
Track Severe Weather on mobile